sensor_id;sensor_type;location;lat;lon;timestamp;temperature;humidity
9762;DHT22;4920;49.594;11.022;2022-09-09T00:01:27;12.80;1.00
9762;DHT22;4920;49.594;11.022;2022-09-09T00:04:02;12.80;1.00
9762;DHT22;4920;49.594;11.022;2022-09-09T00:06:34;12.90;1.00
9762;DHT22;4920;49.594;11.022;2022-09-09T00:09:10;12.90;1.00
9762;DHT22;4920;49.594;11.022;2022-09-09T00:11:43;12.80;1.00
9762;DHT22;4920;49.594;11.022;2022-09-09T00:14:20;12.80;1.00
9762;DHT22;4920;49.594;11.022;2022-09-09T00:16:56;12.80;1.00
9762;DHT22;4920;49.594;11.022;2022-09-09T00:19:33;12.90;1.00
9762;DHT22;4920;49.594;11.022;2022-09-09T00:22:14;12.80;1.00
9762;DHT22;4920;49.594;11.022;2022-09-09T00:24:46;12.90;1.00
9762;DHT22;4920;49.594;11.022;2022-09-09T00:27:21;12.80;1.00
9762;DHT22;4920;49.594;11.022;2022-09-09T00:29:57;12.80;1.00
9762;DHT22;4920;49.594;11.022;2022-09-09T00:32:30;12.80;1.00
9762;DHT22;4920;49.594;11.022;2022-09-09T00:35:12;12.80;1.00
9762;DHT22;4920;49.594;11.022;2022-09-09T00:37:43;12.80;1.00
9762;DHT22;4920;49.594;11.022;2022-09-09T00:40:22;12.80;1.00
9762;DHT22;4920;49.594;11.022;2022-09-09T00:42:59;12.80;1.00
9762;DHT22;4920;49.594;11.022;2022-09-09T00:48:35;12.70;1.00
9762;DHT22;4920;49.594;11.022;2022-09-09T00:51:11;12.80;1.00
9762;DHT22;4920;49.594;11.022;2022-09-09T00:53:58;12.70;1.00
9762;DHT22;4920;49.594;11.022;2022-09-09T00:56:33;12.70;1.00
9762;DHT22;4920;49.594;11.022;2022-09-09T00:59:20;12.70;1.00
9762;DHT22;4920;49.594;11.022;2022-09-09T01:01:54;12.70;1.00
9762;DHT22;4920;49.594;11.022;2022-09-09T01:04:32;12.70;1.00
9762;DHT22;4920;49.594;11.022;2022-09-09T01:07:10;12.70;1.00
9762;DHT22;4920;49.594;11.022;2022-09-09T01:09:52;12.70;1.00
9762;DHT22;4920;49.594;11.022;2022-09-09T01:12:30;12.70;1.00
9762;DHT22;4920;49.594;11.022;2022-09-09T01:15:08;12.70;1.00
9762;DHT22;4920;49.594;11.022;2022-09-09T01:17:50;12.60;1.00
9762;DHT22;4920;49.594;11.022;2022-09-09T01:20:24;12.70;1.00
9762;DHT22;4920;49.594;11.022;2022-09-09T01:23:26;12.60;1.00
9762;DHT22;4920;49.594;11.022;2022-09-09T01:26:34;12.60;1.00
9762;DHT22;4920;49.594;11.022;2022-09-09T01:29:09;12.60;1.00
9762;DHT22;4920;49.594;11.022;2022-09-09T01:31:42;12.60;1.00
9762;DHT22;4920;49.594;11.022;2022-09-09T01:34:21;12.60;1.00
9762;DHT22;4920;49.594;11.022;2022-09-09T01:36:55;12.60;1.00
9762;DHT22;4920;49.594;11.022;2022-09-09T01:39:25;12.60;1.00
9762;DHT22;4920;49.594;11.022;2022-09-09T01:42:03;12.60;1.00
9762;DHT22;4920;49.594;11.022;2022-09-09T01:44:34;12.60;1.00
9762;DHT22;4920;49.594;11.022;2022-09-09T01:47:04;12.60;1.00
9762;DHT22;4920;49.594;11.022;2022-09-09T01:49:34;12.70;1.00
9762;DHT22;4920;49.594;11.022;2022-09-09T01:52:10;12.70;1.00
9762;DHT22;4920;49.594;11.022;2022-09-09T01:54:39;12.80;1.00
9762;DHT22;4920;49.594;11.022;2022-09-09T01:57:20;12.80;1.00
9762;DHT22;4920;49.594;11.022;2022-09-09T02:00:01;12.90;1.00
9762;DHT22;4920;49.594;11.022;2022-09-09T02:02:44;12.90;1.00
9762;DHT22;4920;49.594;11.022;2022-09-09T02:05:34;13.00;1.00
9762;DHT22;4920;49.594;11.022;2022-09-09T02:08:11;12.90;1.00
9762;DHT22;4920;49.594;11.022;2022-09-09T02:10:55;12.90;1.00
9762;DHT22;4920;49.594;11.022;2022-09-09T02:13:39;12.90;1.00
9762;DHT22;4920;49.594;11.022;2022-09-09T02:16:14;12.90;1.00
9762;DHT22;4920;49.594;11.022;2022-09-09T02:18:49;12.90;1.00
9762;DHT22;4920;49.594;11.022;2022-09-09T02:21:26;12.90;1.00
9762;DHT22;4920;49.594;11.022;2022-09-09T02:23:58;12.90;1.00
9762;DHT22;4920;49.594;11.022;2022-09-09T02:26:29;13.00;1.00
9762;DHT22;4920;49.594;11.022;2022-09-09T02:29:07;13.00;1.00
9762;DHT22;4920;49.594;11.022;2022-09-09T02:31:37;13.00;1.00
9762;DHT22;4920;49.594;11.022;2022-09-09T02:34:14;13.10;1.00
9762;DHT22;4920;49.594;11.022;2022-09-09T02:36:46;13.20;1.00
9762;DHT22;4920;49.594;11.022;2022-09-09T02:39:15;13.20;1.00
9762;DHT22;4920;49.594;11.022;2022-09-09T02:41:44;13.20;1.00
9762;DHT22;4920;49.594;11.022;2022-09-09T02:44:15;13.20;1.00
9762;DHT22;4920;49.594;11.022;2022-09-09T02:47:07;13.20;1.00
9762;DHT22;4920;49.594;11.022;2022-09-09T02:49:48;13.20;1.00
9762;DHT22;4920;49.594;11.022;2022-09-09T02:52:38;13.20;1.00
9762;DHT22;4920;49.594;11.022;2022-09-09T02:55:17;13.30;1.00
9762;DHT22;4920;49.594;11.022;2022-09-09T02:57:50;13.30;1.00
9762;DHT22;4920;49.594;11.022;2022-09-09T03:00:26;13.40;1.00
9762;DHT22;4920;49.594;11.022;2022-09-09T03:02:59;13.50;1.00
9762;DHT22;4920;49.594;11.022;2022-09-09T03:05:28;13.50;1.00
9762;DHT22;4920;49.594;11.022;2022-09-09T03:07:57;13.60;1.00
9762;DHT22;4920;49.594;11.022;2022-09-09T03:10:25;13.70;1.00
9762;DHT22;4920;49.594;11.022;2022-09-09T03:12:55;13.70;1.00
9762;DHT22;4920;49.594;11.022;2022-09-09T03:15:27;13.70;1.00
9762;DHT22;4920;49.594;11.022;2022-09-09T03:17:59;13.70;1.00
9762;DHT22;4920;49.594;11.022;2022-09-09T03:20:29;13.60;1.00
9762;DHT22;4920;49.594;11.022;2022-09-09T03:23:00;13.60;1.00
9762;DHT22;4920;49.594;11.022;2022-09-09T03:25:29;13.60;1.00
9762;DHT22;4920;49.594;11.022;2022-09-09T03:27:59;13.60;1.00
9762;DHT22;4920;49.594;11.022;2022-09-09T03:30:29;13.60;1.00
9762;DHT22;4920;49.594;11.022;2022-09-09T03:32:58;13.60;1.00
9762;DHT22;4920;49.594;11.022;2022-09-09T03:35:31;13.60;1.00
9762;DHT22;4920;49.594;11.022;2022-09-09T03:38:00;13.60;1.00
9762;DHT22;4920;49.594;11.022;2022-09-09T03:40:31;13.60;1.00
9762;DHT22;4920;49.594;11.022;2022-09-09T03:43:00;13.70;1.00
9762;DHT22;4920;49.594;11.022;2022-09-09T03:45:30;13.70;1.00
9762;DHT22;4920;49.594;11.022;2022-09-09T03:47:59;13.70;1.00
9762;DHT22;4920;49.594;11.022;2022-09-09T03:50:29;13.80;1.00
9762;DHT22;4920;49.594;11.022;2022-09-09T03:52:59;13.70;1.00
9762;DHT22;4920;49.594;11.022;2022-09-09T03:55:27;13.80;1.00
9762;DHT22;4920;49.594;11.022;2022-09-09T03:57:56;13.80;1.00
9762;DHT22;4920;49.594;11.022;2022-09-09T04:00:24;13.80;1.00
9762;DHT22;4920;49.594;11.022;2022-09-09T04:02:55;13.80;1.00
9762;DHT22;4920;49.594;11.022;2022-09-09T04:05:24;13.80;1.00
9762;DHT22;4920;49.594;11.022;2022-09-09T04:07:54;13.80;1.00
9762;DHT22;4920;49.594;11.022;2022-09-09T04:10:23;13.80;1.00
9762;DHT22;4920;49.594;11.022;2022-09-09T04:12:53;13.80;1.00
9762;DHT22;4920;49.594;11.022;2022-09-09T04:15:22;13.80;1.00
9762;DHT22;4920;49.594;11.022;2022-09-09T04:17:51;13.80;1.00
9762;DHT22;4920;49.594;11.022;2022-09-09T04:20:20;13.80;1.00
9762;DHT22;4920;49.594;11.022;2022-09-09T04:22:49;13.90;1.00
9762;DHT22;4920;49.594;11.022;2022-09-09T04:25:17;13.90;1.00
9762;DHT22;4920;49.594;11.022;2022-09-09T04:27:46;13.90;1.00
9762;DHT22;4920;49.594;11.022;2022-09-09T04:30:16;13.90;1.00
9762;DHT22;4920;49.594;11.022;2022-09-09T04:32:45;13.90;1.00
9762;DHT22;4920;49.594;11.022;2022-09-09T04:35:14;14.00;1.00
9762;DHT22;4920;49.594;11.022;2022-09-09T04:37:44;14.00;1.00
9762;DHT22;4920;49.594;11.022;2022-09-09T04:40:12;14.00;1.00
9762;DHT22;4920;49.594;11.022;2022-09-09T04:42:43;14.00;1.00
9762;DHT22;4920;49.594;11.022;2022-09-09T04:45:13;14.00;1.00
9762;DHT22;4920;49.594;11.022;2022-09-09T04:47:42;14.00;1.00
9762;DHT22;4920;49.594;11.022;2022-09-09T04:50:10;14.10;1.00
9762;DHT22;4920;49.594;11.022;2022-09-09T04:52:40;14.10;1.00
9762;DHT22;4920;49.594;11.022;2022-09-09T04:55:10;14.10;1.00
9762;DHT22;4920;49.594;11.022;2022-09-09T04:57:43;14.10;1.00
9762;DHT22;4920;49.594;11.022;2022-09-09T05:00:13;14.20;1.00
9762;DHT22;4920;49.594;11.022;2022-09-09T05:02:41;14.20;1.00
9762;DHT22;4920;49.594;11.022;2022-09-09T05:05:10;14.30;1.00
9762;DHT22;4920;49.594;11.022;2022-09-09T05:07:40;14.30;1.00
9762;DHT22;4920;49.594;11.022;2022-09-09T05:10:10;14.40;99.90
9762;DHT22;4920;49.594;11.022;2022-09-09T05:12:42;14.30;99.90
9762;DHT22;4920;49.594;11.022;2022-09-09T05:15:11;14.30;99.90
9762;DHT22;4920;49.594;11.022;2022-09-09T05:17:39;14.40;99.90
9762;DHT22;4920;49.594;11.022;2022-09-09T05:20:09;14.40;99.90
9762;DHT22;4920;49.594;11.022;2022-09-09T05:22:43;14.40;99.90
9762;DHT22;4920;49.594;11.022;2022-09-09T05:25:13;14.50;99.90
9762;DHT22;4920;49.594;11.022;2022-09-09T05:27:42;14.50;99.90
9762;DHT22;4920;49.594;11.022;2022-09-09T05:30:11;14.60;99.90
9762;DHT22;4920;49.594;11.022;2022-09-09T05:32:39;14.60;99.90
9762;DHT22;4920;49.594;11.022;2022-09-09T05:35:09;14.70;99.90
9762;DHT22;4920;49.594;11.022;2022-09-09T05:37:38;14.70;99.90
9762;DHT22;4920;49.594;11.022;2022-09-09T05:40:08;14.80;99.90
9762;DHT22;4920;49.594;11.022;2022-09-09T05:42:40;14.90;99.90
9762;DHT22;4920;49.594;11.022;2022-09-09T05:45:09;14.90;99.90
9762;DHT22;4920;49.594;11.022;2022-09-09T05:47:38;15.00;99.90
9762;DHT22;4920;49.594;11.022;2022-09-09T05:50:10;15.10;61.40
9762;DHT22;4920;49.594;11.022;2022-09-09T05:52:40;15.20;1.00
9762;DHT22;4920;49.594;11.022;2022-09-09T05:55:08;15.20;1.00
9762;DHT22;4920;49.594;11.022;2022-09-09T05:57:37;15.30;1.00
9762;DHT22;4920;49.594;11.022;2022-09-09T06:00:09;15.40;1.00
9762;DHT22;4920;49.594;11.022;2022-09-09T06:02:50;15.50;99.90
9762;DHT22;4920;49.594;11.022;2022-09-09T06:05:21;15.60;99.90
9762;DHT22;4920;49.594;11.022;2022-09-09T06:07:52;15.70;16.90
9762;DHT22;4920;49.594;11.022;2022-09-09T06:10:21;15.80;1.00
9762;DHT22;4920;49.594;11.022;2022-09-09T06:12:52;15.80;99.90
9762;DHT22;4920;49.594;11.022;2022-09-09T06:15:23;15.90;99.90
9762;DHT22;4920;49.594;11.022;2022-09-09T06:17:54;16.00;1.00
9762;DHT22;4920;49.594;11.022;2022-09-09T06:20:24;16.10;1.00
9762;DHT22;4920;49.594;11.022;2022-09-09T06:22:52;16.10;99.90
9762;DHT22;4920;49.594;11.022;2022-09-09T06:25:21;16.20;14.40
9762;DHT22;4920;49.594;11.022;2022-09-09T06:27:49;16.30;1.00
9762;DHT22;4920;49.594;11.022;2022-09-09T06:30:18;16.40;99.90
9762;DHT22;4920;49.594;11.022;2022-09-09T06:32:48;16.50;1.00
9762;DHT22;4920;49.594;11.022;2022-09-09T06:35:17;16.60;1.00
9762;DHT22;4920;49.594;11.022;2022-09-09T06:37:45;16.80;99.90
9762;DHT22;4920;49.594;11.022;2022-09-09T06:40:17;17.00;1.00
9762;DHT22;4920;49.594;11.022;2022-09-09T06:42:46;17.10;99.90
9762;DHT22;4920;49.594;11.022;2022-09-09T06:45:23;17.20;99.90
9762;DHT22;4920;49.594;11.022;2022-09-09T06:47:57;17.30;1.00
9762;DHT22;4920;49.594;11.022;2022-09-09T06:50:25;17.50;99.90
9762;DHT22;4920;49.594;11.022;2022-09-09T06:52:54;17.70;1.00
9762;DHT22;4920;49.594;11.022;2022-09-09T06:55:22;18.00;99.90
9762;DHT22;4920;49.594;11.022;2022-09-09T06:57:51;18.30;1.00
9762;DHT22;4920;49.594;11.022;2022-09-09T07:00:22;18.60;99.90
9762;DHT22;4920;49.594;11.022;2022-09-09T07:02:51;18.90;99.90
9762;DHT22;4920;49.594;11.022;2022-09-09T07:05:22;19.20;1.00
9762;DHT22;4920;49.594;11.022;2022-09-09T07:07:51;19.40;1.00
9762;DHT22;4920;49.594;11.022;2022-09-09T07:10:20;19.60;99.90
9762;DHT22;4920;49.594;11.022;2022-09-09T07:12:50;19.80;99.90
9762;DHT22;4920;49.594;11.022;2022-09-09T07:15:21;19.90;15.40
9762;DHT22;4920;49.594;11.022;2022-09-09T07:17:50;19.80;1.00
9762;DHT22;4920;49.594;11.022;2022-09-09T07:20:21;19.70;1.00
9762;DHT22;4920;49.594;11.022;2022-09-09T07:22:54;19.60;1.00
9762;DHT22;4920;49.594;11.022;2022-09-09T07:25:23;19.60;1.00
9762;DHT22;4920;49.594;11.022;2022-09-09T07:27:53;19.60;1.00
9762;DHT22;4920;49.594;11.022;2022-09-09T07:30:22;19.70;1.00
9762;DHT22;4920;49.594;11.022;2022-09-09T07:32:54;19.70;1.00
9762;DHT22;4920;49.594;11.022;2022-09-09T07:35:25;19.70;1.00
9762;DHT22;4920;49.594;11.022;2022-09-09T07:37:54;19.70;1.00
9762;DHT22;4920;49.594;11.022;2022-09-09T07:40:23;19.70;1.00
9762;DHT22;4920;49.594;11.022;2022-09-09T07:42:52;19.70;1.00
9762;DHT22;4920;49.594;11.022;2022-09-09T07:45:21;19.60;1.00
9762;DHT22;4920;49.594;11.022;2022-09-09T07:47:49;19.70;1.00
9762;DHT22;4920;49.594;11.022;2022-09-09T07:50:19;19.80;1.00
9762;DHT22;4920;49.594;11.022;2022-09-09T07:52:50;20.00;1.00
9762;DHT22;4920;49.594;11.022;2022-09-09T07:55:20;20.20;1.00
9762;DHT22;4920;49.594;11.022;2022-09-09T07:57:51;20.60;1.00
9762;DHT22;4920;49.594;11.022;2022-09-09T08:00:20;21.00;1.00
9762;DHT22;4920;49.594;11.022;2022-09-09T08:02:52;21.30;1.00
9762;DHT22;4920;49.594;11.022;2022-09-09T08:05:22;21.50;99.90
9762;DHT22;4920;49.594;11.022;2022-09-09T08:07:53;21.70;99.90
9762;DHT22;4920;49.594;11.022;2022-09-09T08:10:22;21.70;99.90
9762;DHT22;4920;49.594;11.022;2022-09-09T08:12:53;21.60;99.90
9762;DHT22;4920;49.594;11.022;2022-09-09T08:15:42;21.50;99.90
9762;DHT22;4920;49.594;11.022;2022-09-09T08:18:12;21.40;99.90
9762;DHT22;4920;49.594;11.022;2022-09-09T08:20:41;21.40;99.90
9762;DHT22;4920;49.594;11.022;2022-09-09T08:23:11;21.50;99.90
9762;DHT22;4920;49.594;11.022;2022-09-09T08:25:39;21.60;99.90
9762;DHT22;4920;49.594;11.022;2022-09-09T08:28:08;21.50;99.90
9762;DHT22;4920;49.594;11.022;2022-09-09T08:30:37;21.50;99.90
9762;DHT22;4920;49.594;11.022;2022-09-09T08:33:06;21.50;99.90
9762;DHT22;4920;49.594;11.022;2022-09-09T08:35:35;21.50;99.90
9762;DHT22;4920;49.594;11.022;2022-09-09T08:38:03;21.40;99.90
9762;DHT22;4920;49.594;11.022;2022-09-09T08:40:42;21.40;99.90
9762;DHT22;4920;49.594;11.022;2022-09-09T08:43:13;21.40;99.90
9762;DHT22;4920;49.594;11.022;2022-09-09T08:45:50;21.40;99.90
9762;DHT22;4920;49.594;11.022;2022-09-09T08:48:37;21.40;99.90
9762;DHT22;4920;49.594;11.022;2022-09-09T08:51:10;21.40;99.90
9762;DHT22;4920;49.594;11.022;2022-09-09T08:53:42;21.40;99.90
9762;DHT22;4920;49.594;11.022;2022-09-09T08:56:14;21.50;99.90
9762;DHT22;4920;49.594;11.022;2022-09-09T08:58:48;21.60;99.90
9762;DHT22;4920;49.594;11.022;2022-09-09T09:01:36;21.70;99.90
9762;DHT22;4920;49.594;11.022;2022-09-09T09:04:29;21.80;99.90
9762;DHT22;4920;49.594;11.022;2022-09-09T09:07:08;21.90;99.90
9762;DHT22;4920;49.594;11.022;2022-09-09T09:09:52;22.00;99.90
9762;DHT22;4920;49.594;11.022;2022-09-09T09:12:32;22.10;99.90
9762;DHT22;4920;49.594;11.022;2022-09-09T09:15:14;22.20;99.90
9762;DHT22;4920;49.594;11.022;2022-09-09T09:17:44;22.40;99.90
9762;DHT22;4920;49.594;11.022;2022-09-09T09:20:13;22.40;99.90
9762;DHT22;4920;49.594;11.022;2022-09-09T09:22:48;22.60;99.90
9762;DHT22;4920;49.594;11.022;2022-09-09T09:25:20;22.80;99.90
9762;DHT22;4920;49.594;11.022;2022-09-09T09:27:58;23.00;99.90
9762;DHT22;4920;49.594;11.022;2022-09-09T09:30:35;23.60;99.90
9762;DHT22;4920;49.594;11.022;2022-09-09T09:33:14;24.00;99.90
9762;DHT22;4920;49.594;11.022;2022-09-09T09:35:48;24.40;99.90
9762;DHT22;4920;49.594;11.022;2022-09-09T09:38:22;24.60;99.90
9762;DHT22;4920;49.594;11.022;2022-09-09T09:41:11;24.70;99.90
9762;DHT22;4920;49.594;11.022;2022-09-09T09:43:41;24.60;99.90
9762;DHT22;4920;49.594;11.022;2022-09-09T09:46:21;24.50;99.90
9762;DHT22;4920;49.594;11.022;2022-09-09T09:48:57;24.40;99.90
9762;DHT22;4920;49.594;11.022;2022-09-09T09:51:29;24.40;99.90
9762;DHT22;4920;49.594;11.022;2022-09-09T09:54:17;24.30;99.90
9762;DHT22;4920;49.594;11.022;2022-09-09T09:56:52;24.40;99.90
9762;DHT22;4920;49.594;11.022;2022-09-09T09:59:32;24.60;99.90
9762;DHT22;4920;49.594;11.022;2022-09-09T10:02:16;24.80;99.90
9762;DHT22;4920;49.594;11.022;2022-09-09T10:05:01;25.00;99.90
9762;DHT22;4920;49.594;11.022;2022-09-09T10:07:31;25.10;99.90
9762;DHT22;4920;49.594;11.022;2022-09-09T10:10:00;25.40;99.00
9762;DHT22;4920;49.594;11.022;2022-09-09T10:12:37;25.60;95.30
9762;DHT22;4920;49.594;11.022;2022-09-09T10:15:28;26.00;94.00
9762;DHT22;4920;49.594;11.022;2022-09-09T10:18:08;26.40;90.10
9762;DHT22;4920;49.594;11.022;2022-09-09T10:20:43;26.70;82.40
9762;DHT22;4920;49.594;11.022;2022-09-09T10:23:25;26.60;72.10
9762;DHT22;4920;49.594;11.022;2022-09-09T10:26:09;26.50;69.40
9762;DHT22;4920;49.594;11.022;2022-09-09T10:28:55;26.20;66.90
9762;DHT22;4920;49.594;11.022;2022-09-09T10:31:33;25.90;67.90
9762;DHT22;4920;49.594;11.022;2022-09-09T10:34:15;25.70;66.60
9762;DHT22;4920;49.594;11.022;2022-09-09T10:36:47;25.60;66.10
9762;DHT22;4920;49.594;11.022;2022-09-09T10:39:31;25.70;65.60
9762;DHT22;4920;49.594;11.022;2022-09-09T10:42:11;25.80;61.70
9762;DHT22;4920;49.594;11.022;2022-09-09T10:44:58;26.00;72.00
9762;DHT22;4920;49.594;11.022;2022-09-09T10:50:36;25.90;56.10
9762;DHT22;4920;49.594;11.022;2022-09-09T10:53:35;25.90;54.00
9762;DHT22;4920;49.594;11.022;2022-09-09T10:56:08;26.00;53.70
9762;DHT22;4920;49.594;11.022;2022-09-09T10:58:40;26.10;51.00
9762;DHT22;4920;49.594;11.022;2022-09-09T11:01:15;26.10;49.40
9762;DHT22;4920;49.594;11.022;2022-09-09T11:03:50;26.00;50.70
9762;DHT22;4920;49.594;11.022;2022-09-09T11:06:24;25.80;50.20
9762;DHT22;4920;49.594;11.022;2022-09-09T11:08:57;25.60;48.40
9762;DHT22;4920;49.594;11.022;2022-09-09T11:11:32;25.60;48.50
9762;DHT22;4920;49.594;11.022;2022-09-09T11:14:05;25.70;47.40
9762;DHT22;4920;49.594;11.022;2022-09-09T11:16:40;25.80;46.50
9762;DHT22;4920;49.594;11.022;2022-09-09T11:19:16;26.00;44.90
9762;DHT22;4920;49.594;11.022;2022-09-09T11:21:49;26.30;44.80
9762;DHT22;4920;49.594;11.022;2022-09-09T11:24:22;26.50;42.00
9762;DHT22;4920;49.594;11.022;2022-09-09T11:26:55;26.70;59.60
9762;DHT22;4920;49.594;11.022;2022-09-09T11:29:46;26.90;38.30
9762;DHT22;4920;49.594;11.022;2022-09-09T11:32:29;27.10;54.60
9762;DHT22;4920;49.594;11.022;2022-09-09T11:35:12;27.20;34.10
9762;DHT22;4920;49.594;11.022;2022-09-09T11:37:58;27.10;29.50
9762;DHT22;4920;49.594;11.022;2022-09-09T11:40:32;26.80;28.60
9762;DHT22;4920;49.594;11.022;2022-09-09T11:43:03;26.70;26.00
9762;DHT22;4920;49.594;11.022;2022-09-09T11:45:34;26.60;25.10
9762;DHT22;4920;49.594;11.022;2022-09-09T11:48:04;26.60;23.80
9762;DHT22;4920;49.594;11.022;2022-09-09T11:50:36;26.70;21.90
9762;DHT22;4920;49.594;11.022;2022-09-09T11:53:21;26.80;22.90
9762;DHT22;4920;49.594;11.022;2022-09-09T11:56:02;26.90;20.80
9762;DHT22;4920;49.594;11.022;2022-09-09T11:58:40;26.80;21.00
9762;DHT22;4920;49.594;11.022;2022-09-09T12:04:30;26.70;21.10
9762;DHT22;4920;49.594;11.022;2022-09-09T12:07:02;26.60;21.10
9762;DHT22;4920;49.594;11.022;2022-09-09T12:09:43;26.80;21.50
9762;DHT22;4920;49.594;11.022;2022-09-09T12:12:25;27.10;18.80
9762;DHT22;4920;49.594;11.022;2022-09-09T12:15:01;27.20;18.40
9762;DHT22;4920;49.594;11.022;2022-09-09T12:17:31;27.10;13.80
9762;DHT22;4920;49.594;11.022;2022-09-09T12:20:02;27.00;13.50
9762;DHT22;4920;49.594;11.022;2022-09-09T12:22:43;26.90;15.10
9762;DHT22;4920;49.594;11.022;2022-09-09T12:25:20;26.90;15.00
9762;DHT22;4920;49.594;11.022;2022-09-09T12:28:01;26.90;14.90
9762;DHT22;4920;49.594;11.022;2022-09-09T12:30:35;26.90;15.10
9762;DHT22;4920;49.594;11.022;2022-09-09T12:33:11;26.90;12.30
9762;DHT22;4920;49.594;11.022;2022-09-09T12:35:42;26.80;11.80
9762;DHT22;4920;49.594;11.022;2022-09-09T12:38:15;27.00;10.60
9762;DHT22;4920;49.594;11.022;2022-09-09T12:40:54;27.20;10.20
9762;DHT22;4920;49.594;11.022;2022-09-09T12:43:24;27.20;7.70
9762;DHT22;4920;49.594;11.022;2022-09-09T12:45:56;26.90;8.30
9762;DHT22;4920;49.594;11.022;2022-09-09T12:48:33;26.50;8.80
9762;DHT22;4920;49.594;11.022;2022-09-09T12:51:16;25.70;11.00
9762;DHT22;4920;49.594;11.022;2022-09-09T12:53:48;24.90;12.70
9762;DHT22;4920;49.594;11.022;2022-09-09T12:56:21;24.20;14.50
9762;DHT22;4920;49.594;11.022;2022-09-09T12:58:52;23.30;17.10
9762;DHT22;4920;49.594;11.022;2022-09-09T13:01:23;22.50;20.10
9762;DHT22;4920;49.594;11.022;2022-09-09T13:03:52;22.00;27.10
9762;DHT22;4920;49.594;11.022;2022-09-09T13:06:26;21.20;60.90
9762;DHT22;4920;49.594;11.022;2022-09-09T13:08:59;20.30;1.00
9762;DHT22;4920;49.594;11.022;2022-09-09T13:11:30;19.50;99.90
9762;DHT22;4920;49.594;11.022;2022-09-09T13:14:02;18.80;1.00
9762;DHT22;4920;49.594;11.022;2022-09-09T13:16:33;18.30;99.90
9762;DHT22;4920;49.594;11.022;2022-09-09T13:19:13;17.70;1.00
9762;DHT22;4920;49.594;11.022;2022-09-09T13:21:43;17.30;1.00
9762;DHT22;4920;49.594;11.022;2022-09-09T13:24:26;17.00;1.00
9762;DHT22;4920;49.594;11.022;2022-09-09T13:26:57;16.70;1.00
9762;DHT22;4920;49.594;11.022;2022-09-09T13:29:27;16.70;1.00
9762;DHT22;4920;49.594;11.022;2022-09-09T13:32:04;16.70;1.00
9762;DHT22;4920;49.594;11.022;2022-09-09T13:34:34;16.80;1.00
9762;DHT22;4920;49.594;11.022;2022-09-09T13:37:05;17.10;14.90
9762;DHT22;4920;49.594;11.022;2022-09-09T13:39:36;17.30;1.00
9762;DHT22;4920;49.594;11.022;2022-09-09T13:42:18;17.30;1.00
9762;DHT22;4920;49.594;11.022;2022-09-09T13:44:49;17.10;1.00
9762;DHT22;4920;49.594;11.022;2022-09-09T13:47:19;17.10;1.00
9762;DHT22;4920;49.594;11.022;2022-09-09T13:49:47;17.10;1.00
9762;DHT22;4920;49.594;11.022;2022-09-09T13:52:17;17.00;1.00
9762;DHT22;4920;49.594;11.022;2022-09-09T13:54:49;16.90;1.00
9762;DHT22;4920;49.594;11.022;2022-09-09T13:57:20;16.90;1.00
9762;DHT22;4920;49.594;11.022;2022-09-09T13:59:48;16.90;1.00
9762;DHT22;4920;49.594;11.022;2022-09-09T14:02:31;16.90;1.00
9762;DHT22;4920;49.594;11.022;2022-09-09T14:05:00;17.00;1.00
9762;DHT22;4920;49.594;11.022;2022-09-09T14:07:29;17.10;1.00
9762;DHT22;4920;49.594;11.022;2022-09-09T14:10:00;17.40;9.90
9762;DHT22;4920;49.594;11.022;2022-09-09T14:12:29;17.50;1.00
9762;DHT22;4920;49.594;11.022;2022-09-09T14:14:57;17.60;1.00
9762;DHT22;4920;49.594;11.022;2022-09-09T14:17:26;17.70;1.00
9762;DHT22;4920;49.594;11.022;2022-09-09T14:19:58;17.80;1.00
9762;DHT22;4920;49.594;11.022;2022-09-09T14:22:27;17.90;1.00
9762;DHT22;4920;49.594;11.022;2022-09-09T14:24:55;18.10;1.00
9762;DHT22;4920;49.594;11.022;2022-09-09T14:27:26;18.20;99.90
9762;DHT22;4920;49.594;11.022;2022-09-09T14:29:55;18.30;99.90
9762;DHT22;4920;49.594;11.022;2022-09-09T14:32:24;18.50;1.00
9762;DHT22;4920;49.594;11.022;2022-09-09T14:34:53;18.60;99.90
9762;DHT22;4920;49.594;11.022;2022-09-09T14:37:21;18.70;99.90
9762;DHT22;4920;49.594;11.022;2022-09-09T14:39:50;18.80;32.20
9762;DHT22;4920;49.594;11.022;2022-09-09T14:42:18;18.80;90.90
9762;DHT22;4920;49.594;11.022;2022-09-09T14:44:48;18.70;1.00
9762;DHT22;4920;49.594;11.022;2022-09-09T14:47:16;18.70;99.90
9762;DHT22;4920;49.594;11.022;2022-09-09T14:49:45;18.60;1.00
9762;DHT22;4920;49.594;11.022;2022-09-09T14:52:16;18.60;1.00
9762;DHT22;4920;49.594;11.022;2022-09-09T14:54:44;18.60;55.50
9762;DHT22;4920;49.594;11.022;2022-09-09T14:57:13;18.80;99.90
9762;DHT22;4920;49.594;11.022;2022-09-09T14:59:41;19.00;1.00
9762;DHT22;4920;49.594;11.022;2022-09-09T15:02:11;19.20;1.00
9762;DHT22;4920;49.594;11.022;2022-09-09T15:04:41;19.30;99.90
9762;DHT22;4920;49.594;11.022;2022-09-09T15:07:09;19.40;99.90
9762;DHT22;4920;49.594;11.022;2022-09-09T15:09:38;19.50;99.90
9762;DHT22;4920;49.594;11.022;2022-09-09T15:12:07;19.40;1.00
9762;DHT22;4920;49.594;11.022;2022-09-09T15:14:36;19.40;1.00
9762;DHT22;4920;49.594;11.022;2022-09-09T15:17:05;19.40;1.00
9762;DHT22;4920;49.594;11.022;2022-09-09T15:19:35;19.40;40.10
9762;DHT22;4920;49.594;11.022;2022-09-09T15:22:03;19.50;1.00
9762;DHT22;4920;49.594;11.022;2022-09-09T15:24:34;19.60;1.00
9762;DHT22;4920;49.594;11.022;2022-09-09T15:27:03;19.70;1.00
9762;DHT22;4920;49.594;11.022;2022-09-09T15:29:32;19.90;1.00
9762;DHT22;4920;49.594;11.022;2022-09-09T15:32:00;20.10;1.00
9762;DHT22;4920;49.594;11.022;2022-09-09T15:34:29;20.20;1.00
9762;DHT22;4920;49.594;11.022;2022-09-09T15:36:59;20.20;99.90
9762;DHT22;4920;49.594;11.022;2022-09-09T15:39:28;20.20;99.90
9762;DHT22;4920;49.594;11.022;2022-09-09T15:41:56;20.10;1.00
9762;DHT22;4920;49.594;11.022;2022-09-09T15:44:25;20.10;1.00
9762;DHT22;4920;49.594;11.022;2022-09-09T15:46:53;20.10;99.90
9762;DHT22;4920;49.594;11.022;2022-09-09T15:49:23;20.20;4.70
9762;DHT22;4920;49.594;11.022;2022-09-09T15:51:53;20.30;99.90
9762;DHT22;4920;49.594;11.022;2022-09-09T15:54:24;20.40;99.90
9762;DHT22;4920;49.594;11.022;2022-09-09T15:56:58;20.50;47.60
9762;DHT22;4920;49.594;11.022;2022-09-09T15:59:28;20.70;1.00
9762;DHT22;4920;49.594;11.022;2022-09-09T16:01:57;20.90;99.90
9762;DHT22;4920;49.594;11.022;2022-09-09T16:04:28;21.10;1.00
9762;DHT22;4920;49.594;11.022;2022-09-09T16:06:58;21.30;1.00
9762;DHT22;4920;49.594;11.022;2022-09-09T16:09:29;21.50;99.90
9762;DHT22;4920;49.594;11.022;2022-09-09T16:11:59;21.50;53.60
9762;DHT22;4920;49.594;11.022;2022-09-09T16:14:29;21.50;1.00
9762;DHT22;4920;49.594;11.022;2022-09-09T16:17:01;21.40;1.00
9762;DHT22;4920;49.594;11.022;2022-09-09T16:19:30;21.30;1.00
9762;DHT22;4920;49.594;11.022;2022-09-09T16:21:58;21.20;1.00
9762;DHT22;4920;49.594;11.022;2022-09-09T16:24:28;21.10;1.00
9762;DHT22;4920;49.594;11.022;2022-09-09T16:26:57;21.10;1.00
9762;DHT22;4920;49.594;11.022;2022-09-09T16:29:25;21.10;99.90
9762;DHT22;4920;49.594;11.022;2022-09-09T16:31:54;21.00;99.90
9762;DHT22;4920;49.594;11.022;2022-09-09T16:34:29;21.00;99.90
9762;DHT22;4920;49.594;11.022;2022-09-09T16:36:58;20.90;99.90
9762;DHT22;4920;49.594;11.022;2022-09-09T16:39:28;20.90;99.90
9762;DHT22;4920;49.594;11.022;2022-09-09T16:41:56;20.90;99.90